createdAt,value
2019-05-01T03:49:19.221Z,4.00
2019-05-01T03:51:19.168Z,4.00
2019-05-01T03:55:19.120Z,4.00
2019-05-01T03:57:19.111Z,8.00
2019-05-01T04:02:33.061Z,8.00
2019-05-01T04:05:41.341Z,12.00
2019-05-01T04:10:41.275Z,20.00
2019-05-01T04:14:41.238Z,28.00
2019-05-01T04:17:41.218Z,32.00
2019-05-01T04:18:41.199Z,32.00
2019-05-01T04:21:41.165Z,36.00
2019-05-01T04:23:41.196Z,40.00
2019-05-01T04:30:41.068Z,56.00
2019-05-01T04:32:52.222Z,64.00
2019-05-01T04:35:02.540Z,64.00
2019-05-01T04:39:02.498Z,76.00
2019-05-01T04:42:02.455Z,88.00
2019-05-01T04:43:02.449Z,88.00
2019-05-01T04:49:02.386Z,104.00
2019-05-01T04:52:02.345Z,112.00
2019-05-01T04:53:02.350Z,116.00
2019-05-01T04:54:02.549Z,120.00
2019-05-01T04:55:02.308Z,128.00
2019-05-01T04:56:02.311Z,132.00
2019-05-01T04:57:02.300Z,136.00
2019-05-01T04:58:02.275Z,136.00
2019-05-01T04:59:02.272Z,144.00
2019-05-01T05:01:02.242Z,156.00
2019-05-01T05:02:02.233Z,164.00
2019-05-01T05:03:05.124Z,168.00
2019-05-01T05:04:02.204Z,176.00
2019-05-01T05:05:02.213Z,176.00
2019-05-01T05:06:02.194Z,180.00
2019-05-01T05:07:02.177Z,180.00
2019-05-01T05:08:02.158Z,184.00
2019-05-01T05:09:02.153Z,184.00
2019-05-01T05:10:02.153Z,192.00
2019-05-01T05:11:02.135Z,200.00
2019-05-01T05:13:02.108Z,204.00
2019-05-01T05:14:02.109Z,208.00
2019-05-01T05:15:02.098Z,212.00
2019-05-01T05:16:02.080Z,212.00
2019-05-01T05:17:02.060Z,224.00
2019-05-01T05:18:02.067Z,228.00
2019-05-01T05:19:02.048Z,236.00
2019-05-01T05:20:02.123Z,244.00
2019-05-01T05:21:02.020Z,256.00
2019-05-01T05:22:02.018Z,264.00
2019-05-01T05:23:01.992Z,268.00
2019-05-01T05:25:02.037Z,264.00
2019-05-01T05:27:01.963Z,264.00
2019-05-01T05:28:01.945Z,272.00
2019-05-01T05:29:01.924Z,280.00
2019-05-01T05:30:01.967Z,288.00
2019-05-01T05:31:01.910Z,288.00
2019-05-01T05:34:01.875Z,300.00
2019-05-01T05:35:01.892Z,308.00
2019-05-01T05:36:01.854Z,316.00
2019-05-01T05:37:01.836Z,324.00
2019-05-01T05:38:01.829Z,324.00
2019-05-01T05:39:01.831Z,324.00
2019-05-01T05:40:01.812Z,328.00
2019-05-01T05:41:01.797Z,332.00
2019-05-01T05:43:01.778Z,340.00
2019-05-01T05:44:01.770Z,352.00
2019-05-01T05:45:01.751Z,364.00
2019-05-01T05:46:01.768Z,376.00
2019-05-01T05:47:01.738Z,384.00
2019-05-01T05:48:01.715Z,392.00
2019-05-01T05:50:01.706Z,400.00
2019-05-01T05:51:01.681Z,400.00
2019-05-01T05:52:01.667Z,400.00
2019-05-01T05:53:01.659Z,400.00
2019-05-01T05:54:01.663Z,392.00
2019-05-01T05:55:01.636Z,388.00
2019-05-01T05:56:01.643Z,396.00
2019-05-01T05:57:01.615Z,408.00
2019-05-01T06:00:01.582Z,432.00
2019-05-01T06:02:01.558Z,436.00
2019-05-01T06:03:01.559Z,440.00
2019-05-01T06:04:01.523Z,440.00
2019-05-01T06:05:01.522Z,448.00
2019-05-01T06:06:01.510Z,452.00
2019-05-01T06:07:01.497Z,468.00
2019-05-01T06:08:01.495Z,488.00
2019-05-01T06:10:01.465Z,512.00
2019-05-01T06:12:04.871Z,528.00
2019-05-01T06:14:26.945Z,532.00
2019-05-01T06:15:23.432Z,536.00
2019-05-01T06:16:23.423Z,540.00
2019-05-01T06:18:23.413Z,544.00
2019-05-01T06:19:23.397Z,548.00
2019-05-01T06:20:25.991Z,544.00
2019-05-01T06:21:23.366Z,552.00
2019-05-01T06:23:23.350Z,568.00
2019-05-01T06:25:25.203Z,552.00
2019-05-01T06:26:23.359Z,548.00
2019-05-01T06:27:23.306Z,556.00
2019-05-01T06:28:24.807Z,568.00
2019-05-01T06:29:23.286Z,572.00
2019-05-01T06:30:23.269Z,576.00
2019-05-01T06:32:23.249Z,584.00
2019-05-01T06:33:23.239Z,592.00
2019-05-01T06:34:23.927Z,600.00
2019-05-01T06:35:23.211Z,600.00
2019-05-01T06:36:23.920Z,608.00
2019-05-01T06:37:25.348Z,620.00
2019-05-01T06:38:23.186Z,640.00
2019-05-01T06:39:23.160Z,648.00
2019-05-01T06:40:23.658Z,660.00
2019-05-01T06:41:23.145Z,680.00
2019-05-01T06:42:23.131Z,700.00
2019-05-01T06:43:25.557Z,708.00
2019-05-01T06:44:23.122Z,696.00
2019-05-01T06:45:23.117Z,684.00
2019-05-01T06:46:27.156Z,692.00
2019-05-01T06:47:23.080Z,704.00
2019-05-01T06:48:23.074Z,704.00
2019-05-01T06:49:24.176Z,688.00
2019-05-01T06:50:23.044Z,676.00
2019-05-01T06:51:23.032Z,680.00
2019-05-01T06:53:23.011Z,660.00
2019-05-01T06:54:23.002Z,660.00
2019-05-01T06:55:27.312Z,660.00
2019-05-01T06:56:22.988Z,660.00
2019-05-01T06:57:22.973Z,672.00
2019-05-01T06:58:22.960Z,692.00
2019-05-01T06:59:26.175Z,724.00
2019-05-01T07:00:45.361Z,760.00
2019-05-01T07:01:45.348Z,776.00
2019-05-01T07:02:45.337Z,780.00
2019-05-01T07:03:46.951Z,772.00
2019-05-01T07:05:09.163Z,772.00
2019-05-01T07:06:30.940Z,764.00
2019-05-01T07:07:29.497Z,764.00
2019-05-01T07:08:34.241Z,768.00
2019-05-01T07:09:29.465Z,776.00
2019-05-01T07:10:32.991Z,780.00
2019-05-01T07:11:52.806Z,784.00
2019-05-01T07:12:51.719Z,784.00
2019-05-01T07:13:51.703Z,796.00
2019-05-01T07:14:52.200Z,816.00
2019-05-01T07:15:51.676Z,840.00
2019-05-01T07:16:51.660Z,860.00
2019-05-01T07:17:51.666Z,880.00
2019-05-01T07:18:51.651Z,892.00
2019-05-01T07:19:51.641Z,892.00
2019-05-01T07:20:52.971Z,896.00
2019-05-01T07:21:51.617Z,904.00
2019-05-01T07:22:51.640Z,908.00
2019-05-01T07:23:52.139Z,912.00
2019-05-01T07:24:51.617Z,912.00
2019-05-01T07:25:51.569Z,924.00
2019-05-01T07:26:51.547Z,936.00
2019-05-01T07:27:54.000Z,940.00
2019-05-01T07:29:13.608Z,928.00
2019-05-01T07:30:15.952Z,916.00
2019-05-01T07:31:13.584Z,916.00
2019-05-01T07:32:15.073Z,920.00
2019-05-01T07:33:16.696Z,920.00
2019-05-01T07:34:16.632Z,904.00
2019-05-01T07:35:13.572Z,888.00
2019-05-01T07:36:16.366Z,888.00
2019-05-01T07:37:13.534Z,920.00
2019-05-01T07:38:13.499Z,960.00
2019-05-01T07:39:14.689Z,992.00
2019-05-01T07:40:13.475Z,1000.00
2019-05-01T07:41:13.469Z,1004.00
2019-05-01T07:42:14.009Z,1012.00
2019-05-01T07:43:13.456Z,1028.00
2019-05-01T07:44:13.436Z,1016.00
2019-05-01T07:45:13.416Z,992.00
2019-05-01T07:46:13.854Z,972.00
2019-05-01T07:47:13.398Z,960.00
2019-05-01T07:48:13.412Z,960.00
2019-05-01T07:49:17.588Z,996.00
2019-05-01T07:50:13.368Z,1040.00
2019-05-01T07:51:13.352Z,1072.00
2019-05-01T07:52:17.065Z,1092.00
2019-05-01T07:53:13.330Z,1112.00
2019-05-01T07:54:13.321Z,1136.00
2019-05-01T07:55:18.386Z,1164.00
2019-05-01T07:56:13.294Z,1184.00
2019-05-01T07:57:13.285Z,1208.00
2019-05-01T07:58:15.694Z,1220.00
2019-05-01T07:59:13.262Z,1236.00
2019-05-01T08:00:13.254Z,1228.00
2019-05-01T08:01:18.123Z,1196.00
2019-05-01T08:02:35.406Z,1156.00
2019-05-01T08:03:38.021Z,1096.00
2019-05-01T08:04:57.367Z,1032.00
2019-05-01T08:05:57.339Z,1072.00
2019-05-01T08:06:58.603Z,1104.00
2019-05-01T08:07:57.319Z,1148.00
2019-05-01T08:08:57.308Z,1188.00
2019-05-01T08:09:57.298Z,1200.00
2019-05-01T08:10:59.885Z,1228.00
2019-05-01T08:12:23.999Z,1292.00
2019-05-01T08:13:41.348Z,1360.00
2019-05-01T08:14:41.297Z,1392.00
2019-05-01T08:15:41.289Z,1400.00
2019-05-01T08:16:42.464Z,1428.00
2019-05-01T08:17:41.366Z,1448.00
2019-05-01T08:18:41.264Z,1432.00
2019-05-01T08:19:41.304Z,1396.00
2019-05-01T08:20:41.285Z,1384.00
2019-05-01T08:21:41.234Z,1316.00
2019-05-01T08:22:41.220Z,1272.00
2019-05-01T08:23:42.567Z,1264.00
2019-05-01T08:24:41.236Z,1268.00
2019-05-01T08:25:41.192Z,1284.00
2019-05-01T08:26:44.307Z,1300.00
2019-05-01T08:27:41.161Z,1312.00
2019-05-01T08:28:41.159Z,1300.00
2019-05-01T08:29:42.158Z,1284.00
2019-05-01T08:30:41.183Z,1296.00
2019-05-01T08:31:41.119Z,1348.00
2019-05-01T08:32:41.103Z,1380.00
2019-05-01T08:33:44.863Z,1392.00
2019-05-01T08:35:02.579Z,1364.00
2019-05-01T08:36:02.540Z,1320.00
2019-05-01T08:37:02.544Z,1296.00
2019-05-01T08:38:02.517Z,1260.00
2019-05-01T08:39:04.977Z,1228.00
2019-05-01T08:40:24.520Z,1224.00
2019-05-01T08:41:26.948Z,1244.00
2019-05-01T08:42:47.416Z,1316.00
2019-05-01T08:43:49.018Z,1352.00
2019-05-01T08:45:10.275Z,1420.00
2019-05-01T08:46:11.937Z,1496.00
2019-05-01T08:47:10.246Z,1532.00
2019-05-01T08:48:10.257Z,1552.00
2019-05-01T08:49:11.294Z,1568.00
2019-05-01T08:50:10.331Z,1596.00
2019-05-01T08:51:10.261Z,1644.00
2019-05-01T08:52:13.623Z,1692.00
2019-05-01T08:53:10.182Z,1764.00
2019-05-01T08:54:10.186Z,1836.00
2019-05-01T08:55:10.919Z,1900.00
2019-05-01T08:56:10.150Z,1932.00
2019-05-01T08:57:10.138Z,1964.00
2019-05-01T08:58:14.021Z,1936.00
2019-05-01T08:59:10.233Z,1884.00
2019-05-01T09:00:10.117Z,1856.00
2019-05-01T09:01:10.753Z,1848.00
2019-05-01T09:02:10.085Z,1796.00
2019-05-01T09:03:13.474Z,1748.00
2019-05-01T09:04:32.502Z,1760.00
2019-05-01T09:05:34.073Z,1800.00
2019-05-01T09:06:34.831Z,1844.00
2019-05-01T09:07:32.495Z,1884.00
2019-05-01T09:08:33.344Z,1868.00
2019-05-01T09:09:33.381Z,1848.00
2019-05-01T09:10:32.456Z,1812.00
2019-05-01T09:11:36.298Z,1776.00
2019-05-01T09:12:32.410Z,1768.00
2019-05-01T09:13:32.382Z,1768.00
2019-05-01T09:14:35.036Z,1784.00
2019-05-01T09:32:20.853Z,2176.00
2019-05-01T09:33:20.875Z,2240.00
2019-05-01T09:34:21.113Z,2248.00
2019-05-01T09:35:20.823Z,2144.00
2019-05-01T09:36:20.792Z,1996.00
2019-05-01T09:37:20.792Z,1916.00
2019-05-01T09:38:20.768Z,1848.00
2019-05-01T09:39:20.754Z,1796.00
2019-05-01T09:40:20.749Z,1816.00
2019-05-01T09:41:20.730Z,1884.00
2019-05-01T09:42:23.883Z,1976.00
2019-05-01T09:43:20.817Z,2036.00
2019-05-01T09:44:20.723Z,2112.00
2019-05-01T09:45:20.689Z,2160.00
2019-05-01T09:46:20.686Z,2180.00
2019-05-01T09:47:20.663Z,2172.00
2019-05-01T09:48:20.654Z,2172.00
2019-05-01T09:49:20.639Z,2164.00
2019-05-01T09:50:20.658Z,2152.00
2019-05-01T09:51:20.628Z,2164.00
2019-05-01T09:52:23.500Z,2180.00
2019-05-01T09:53:20.593Z,2164.00
2019-05-01T09:54:20.586Z,2156.00
2019-05-01T09:55:23.017Z,2128.00
2019-05-01T09:56:20.557Z,2100.00
2019-05-01T09:57:20.556Z,2076.00
2019-05-01T09:58:20.540Z,2088.00
2019-05-01T09:59:20.527Z,2120.00
2019-05-01T10:00:20.522Z,2184.00
2019-05-01T10:01:24.049Z,2276.00
2019-05-01T10:02:43.952Z,2396.00
2019-05-01T10:03:44.883Z,2452.00
2019-05-01T10:04:42.649Z,2484.00
2019-05-01T10:05:44.086Z,2512.00
2019-05-01T10:06:42.640Z,2496.00
2019-05-01T10:07:42.613Z,2460.00
2019-05-01T10:08:42.637Z,2432.00
2019-05-01T10:09:42.691Z,2420.00
2019-05-01T10:10:42.578Z,2404.00
2019-05-01T10:11:42.566Z,2380.00
2019-05-01T10:12:47.052Z,2364.00
2019-05-01T10:13:42.550Z,2368.00
2019-05-01T10:14:42.530Z,2384.00
2019-05-01T10:15:42.525Z,2412.00
2019-05-01T10:16:42.515Z,2408.00
2019-05-01T10:17:42.504Z,2432.00
2019-05-01T10:18:42.500Z,2508.00
2019-05-01T10:19:42.494Z,2580.00
2019-05-01T10:20:42.482Z,2628.00
2019-05-01T10:21:42.470Z,2704.00
2019-05-01T10:22:42.460Z,2820.00
2019-05-01T10:23:42.440Z,2956.00
2019-05-01T10:24:42.597Z,3016.00
2019-05-01T10:25:42.794Z,2968.00
2019-05-01T10:26:42.397Z,2828.00
2019-05-01T10:27:42.385Z,2788.00
2019-05-01T10:28:44.942Z,2732.00
2019-05-01T10:30:04.468Z,2696.00
2019-05-01T10:31:07.000Z,2708.00
2019-05-01T10:32:30.442Z,2720.00
2019-05-01T10:33:32.661Z,2740.00
2019-05-01T10:34:30.407Z,2772.00
2019-05-01T10:35:41.942Z,2732.00
2019-05-01T10:36:54.511Z,2724.00
2019-05-01T10:37:52.384Z,2736.00
2019-05-01T10:38:52.386Z,2744.00
2019-05-01T10:39:54.190Z,2728.00
2019-05-01T10:40:52.315Z,2692.00
2019-05-01T10:41:52.307Z,2744.00
2019-05-01T10:42:52.295Z,2856.00
2019-05-01T10:43:52.287Z,2896.00
2019-05-01T10:44:52.269Z,2916.00
2019-05-01T10:45:52.259Z,2932.00
2019-05-01T10:46:52.268Z,2948.00
2019-05-01T10:47:52.238Z,2956.00
2019-05-01T10:48:52.226Z,2988.00
2019-05-01T10:49:52.223Z,3056.00
2019-05-01T10:50:52.213Z,3156.00
2019-05-01T10:51:52.192Z,3304.00
2019-05-01T10:52:52.213Z,3352.00
2019-05-01T10:53:52.171Z,3320.00
2019-05-01T10:54:52.154Z,3344.00
2019-05-01T10:55:52.207Z,3376.00
2019-05-01T10:56:52.145Z,3336.00
2019-05-01T10:57:52.145Z,3300.00
2019-05-01T10:58:52.114Z,3232.00
2019-05-01T10:59:52.130Z,3184.00
2019-05-01T11:00:52.098Z,3196.00
2019-05-01T11:01:52.087Z,3272.00
2019-05-01T11:02:52.079Z,3364.00
2019-05-01T11:03:52.122Z,3376.00
2019-05-01T11:04:52.056Z,3336.00
2019-05-01T11:05:56.133Z,3336.00
2019-05-01T11:06:52.029Z,3216.00
2019-05-01T11:07:52.008Z,3152.00
2019-05-01T11:08:51.991Z,3184.00
2019-05-01T11:09:51.994Z,3228.00
2019-05-01T11:10:51.975Z,3264.00
2019-05-01T11:11:51.964Z,3304.00
2019-05-01T11:12:51.952Z,3352.00
2019-05-01T11:13:51.939Z,3336.00
2019-05-01T11:14:51.951Z,3284.00
2019-05-01T11:15:51.920Z,3232.00
2019-05-01T11:16:51.946Z,3232.00
2019-05-01T11:17:51.907Z,3296.00
2019-05-01T11:18:51.909Z,3356.00
2019-05-01T11:19:51.933Z,3368.00
2019-05-01T11:20:51.866Z,3340.00
2019-05-01T11:21:51.892Z,3216.00
2019-05-01T11:22:51.878Z,3180.00
2019-05-01T11:23:51.833Z,3140.00
2019-05-01T11:24:51.824Z,3132.00
2019-05-01T11:25:51.805Z,3160.00
2019-05-01T11:26:51.809Z,3136.00
2019-05-01T11:27:51.781Z,3196.00
2019-05-01T11:28:51.805Z,3164.00
2019-05-01T11:29:51.755Z,3044.00
2019-05-01T11:30:51.746Z,2936.00
2019-05-01T11:31:51.739Z,2916.00
2019-05-01T11:32:51.725Z,2896.00
2019-05-01T11:33:51.826Z,2992.00
2019-05-01T11:34:51.699Z,3164.00
2019-05-01T11:35:51.694Z,3224.00
2019-05-01T11:36:51.692Z,3224.00
2019-05-01T11:37:51.659Z,3244.00
2019-05-01T11:38:51.696Z,3360.00
2019-05-01T11:39:51.687Z,3388.00
2019-05-01T11:40:51.630Z,3424.00
2019-05-01T11:41:51.636Z,3264.00
2019-05-01T11:42:51.610Z,3096.00
2019-05-01T11:43:51.604Z,2900.00
2019-05-01T11:44:51.594Z,2640.00
2019-05-01T11:45:51.592Z,2404.00
2019-05-01T11:46:51.573Z,2308.00
2019-05-01T11:47:51.549Z,2240.00
2019-05-01T11:48:51.544Z,2376.00
2019-05-01T11:49:51.536Z,2640.00
2019-05-01T11:50:51.531Z,2872.00
2019-05-01T11:51:51.530Z,2748.00
2019-05-01T11:52:51.654Z,2676.00
2019-05-01T11:53:51.486Z,2620.00
2019-05-01T11:54:51.468Z,2544.00
2019-05-01T11:55:51.462Z,2404.00
2019-05-01T11:56:51.456Z,2236.00
2019-05-01T11:57:51.444Z,2172.00
2019-05-01T11:58:51.441Z,2308.00
2019-05-01T11:59:51.435Z,2536.00
2019-05-01T12:00:51.406Z,2720.00
2019-05-01T12:01:51.394Z,2892.00
2019-05-01T12:02:51.388Z,2984.00
2019-05-01T12:03:51.388Z,2888.00
2019-05-01T12:04:51.379Z,2848.00
2019-05-01T12:05:51.348Z,2704.00
2019-05-01T12:06:51.343Z,2360.00
2019-05-01T12:07:51.326Z,2060.00
2019-05-01T12:08:51.321Z,1980.00
2019-05-01T12:09:51.301Z,1896.00
2019-05-01T12:10:51.291Z,1752.00
2019-05-01T12:11:51.332Z,1684.00
2019-05-01T12:12:51.272Z,1620.00
2019-05-01T12:13:51.267Z,1588.00
2019-05-01T12:14:51.249Z,1576.00
2019-05-01T12:15:51.241Z,1568.00
2019-05-01T12:16:51.262Z,1552.00
2019-05-01T12:17:51.227Z,1524.00
2019-05-01T12:18:51.213Z,1524.00
2019-05-01T12:19:51.192Z,1512.00
2019-05-01T12:20:51.184Z,1492.00
2019-05-01T12:21:51.184Z,1468.00
2019-05-01T12:22:51.727Z,1452.00
2019-05-01T12:23:51.142Z,1464.00
2019-05-01T12:24:51.143Z,1480.00
2019-05-01T12:25:51.175Z,1500.00
2019-05-01T12:26:51.110Z,1512.00
2019-05-01T12:27:51.134Z,1516.00
2019-05-01T12:28:51.087Z,1516.00
2019-05-01T12:29:51.091Z,1496.00
2019-05-01T12:30:51.074Z,1472.00
2019-05-01T12:31:51.050Z,1456.00
2019-05-01T12:32:51.043Z,1448.00
2019-05-01T12:33:51.040Z,1440.00
2019-05-01T12:34:51.033Z,1440.00
2019-05-01T12:35:51.005Z,1440.00
2019-05-01T12:36:51.008Z,1448.00
2019-05-01T12:37:50.983Z,1456.00
2019-05-01T12:38:50.980Z,1456.00
2019-05-01T12:39:50.967Z,1448.00
2019-05-01T12:40:50.962Z,1440.00
2019-05-01T12:41:50.935Z,1452.00
2019-05-01T12:42:50.928Z,1448.00
2019-05-01T12:43:50.917Z,1448.00
2019-05-01T12:44:50.910Z,1436.00
2019-05-01T12:45:50.888Z,1424.00
2019-05-01T12:46:50.900Z,1424.00
2019-05-01T12:47:50.874Z,1424.00
2019-05-01T12:48:50.881Z,1424.00
2019-05-01T12:49:50.856Z,1420.00
2019-05-01T12:50:50.843Z,1408.00
2019-05-01T12:51:50.819Z,1400.00
2019-05-01T12:52:50.814Z,1392.00
2019-05-01T12:53:50.815Z,1392.00
2019-05-01T12:54:52.068Z,1392.00
2019-05-01T12:55:50.783Z,1388.00
2019-05-01T12:56:50.776Z,1396.00
2019-05-01T12:57:50.757Z,1408.00
2019-05-01T12:58:50.745Z,1408.00
2019-05-01T12:59:50.740Z,1416.00
2019-05-01T13:00:50.716Z,1412.00
2019-05-01T13:01:50.753Z,1396.00
2019-05-01T13:02:50.699Z,1396.00
2019-05-01T13:03:50.682Z,1392.00
2019-05-01T13:04:50.699Z,1392.00
2019-05-01T13:05:50.700Z,1408.00
2019-05-01T13:06:50.656Z,1392.00
2019-05-01T13:07:52.451Z,1392.00
2019-05-01T13:08:50.857Z,1384.00
2019-05-01T13:09:50.620Z,1388.00
2019-05-01T13:10:50.645Z,1396.00
2019-05-01T13:11:50.632Z,1384.00
2019-05-01T13:12:50.651Z,1384.00
2019-05-01T13:13:50.601Z,1392.00
2019-05-01T13:14:50.561Z,1396.00
2019-05-01T13:15:50.549Z,1400.00
2019-05-01T13:16:50.539Z,1392.00
2019-05-01T13:17:51.243Z,1396.00
2019-05-01T13:18:50.522Z,1392.00
2019-05-01T13:19:50.528Z,1388.00
2019-05-01T13:20:50.514Z,1388.00
2019-05-01T13:21:50.505Z,1388.00
2019-05-01T13:22:50.479Z,1392.00
2019-05-01T13:23:50.462Z,1384.00
2019-05-01T13:24:50.455Z,1376.00
2019-05-01T13:25:50.462Z,1376.00
2019-05-01T13:26:50.422Z,1364.00
2019-05-01T13:27:50.433Z,1360.00
2019-05-01T13:28:50.419Z,1360.00
2019-05-01T13:29:50.397Z,1364.00
2019-05-01T13:30:50.388Z,1352.00
2019-05-01T13:31:50.374Z,1360.00
2019-05-01T13:32:50.355Z,1360.00
2019-05-01T13:33:50.340Z,1372.00
2019-05-01T13:34:50.335Z,1360.00
2019-05-01T13:35:50.327Z,1344.00
2019-05-01T13:37:02.332Z,1348.00
2019-05-01T13:38:12.397Z,1368.00
2019-05-01T13:39:12.378Z,1364.00
2019-05-01T13:40:12.352Z,1364.00
2019-05-01T13:41:12.343Z,1368.00
2019-05-01T13:42:12.442Z,1360.00
2019-05-01T13:43:12.330Z,1348.00
2019-05-01T13:44:12.305Z,1344.00
2019-05-01T13:45:12.309Z,1340.00
2019-05-01T13:46:12.732Z,1332.00
2019-05-01T13:47:12.944Z,1332.00
2019-05-01T13:48:12.493Z,1332.00
2019-05-01T13:49:12.250Z,1328.00
2019-05-01T13:50:12.305Z,1324.00
2019-05-01T13:51:12.236Z,1336.00
2019-05-01T13:52:12.220Z,1340.00
2019-05-01T13:53:12.274Z,1336.00
2019-05-01T13:54:12.196Z,1336.00
2019-05-01T13:55:12.238Z,1332.00
2019-05-01T13:56:12.171Z,1336.00
2019-05-01T13:57:12.160Z,1336.00
2019-05-01T13:58:12.159Z,1340.00
2019-05-01T13:59:12.144Z,1340.00
2019-05-01T14:00:12.130Z,1316.00
2019-05-01T14:01:12.131Z,1296.00
2019-05-01T14:02:12.126Z,1296.00
2019-05-01T14:03:12.103Z,1300.00
2019-05-01T14:04:12.100Z,1316.00
2019-05-01T14:05:12.129Z,1328.00
2019-05-01T14:06:12.072Z,1320.00
2019-05-01T14:07:16.537Z,1324.00
2019-05-01T14:08:12.034Z,1328.00
2019-05-01T14:09:12.061Z,1320.00
2019-05-01T14:10:12.016Z,1312.00
2019-05-01T14:11:11.999Z,1320.00
2019-05-01T14:12:12.006Z,1320.00
2019-05-01T14:13:12.003Z,1312.00
2019-05-01T14:14:11.985Z,1304.00
2019-05-01T14:15:12.007Z,1304.00
2019-05-01T14:16:14.361Z,1304.00
2019-05-01T14:17:12.023Z,1304.00
2019-05-01T14:18:11.940Z,1316.00
2019-05-01T14:19:11.938Z,1308.00
2019-05-01T14:20:11.936Z,1304.00
2019-05-01T14:21:11.913Z,1288.00
2019-05-01T14:22:12.176Z,1296.00
2019-05-01T14:23:11.875Z,1292.00
2019-05-01T14:24:11.861Z,1288.00
2019-05-01T14:25:11.853Z,1288.00
2019-05-01T14:26:11.872Z,1296.00
2019-05-01T14:27:11.821Z,1296.00
2019-05-01T14:28:11.815Z,1288.00
2019-05-01T14:29:11.810Z,1288.00
2019-05-01T14:30:11.813Z,1276.00
2019-05-01T14:31:11.781Z,1276.00
2019-05-01T14:32:11.779Z,1280.00
2019-05-01T14:33:11.782Z,1280.00
2019-05-01T14:34:11.752Z,1276.00
2019-05-01T14:35:11.747Z,1264.00
2019-05-01T14:36:11.728Z,1264.00
2019-05-01T14:37:11.800Z,1264.00
2019-05-01T14:38:11.723Z,1256.00
2019-05-01T14:39:11.713Z,1260.00
2019-05-01T14:40:11.681Z,1252.00
2019-05-01T14:41:11.672Z,1260.00
2019-05-01T14:42:11.687Z,1268.00
2019-05-01T14:43:11.667Z,1264.00
2019-05-01T14:44:11.646Z,1268.00
2019-05-01T14:45:11.637Z,1264.00
2019-05-01T14:46:11.619Z,1256.00
2019-05-01T14:47:11.607Z,1248.00
2019-05-01T14:48:11.595Z,1228.00
2019-05-01T14:49:11.575Z,1224.00
2019-05-01T14:50:11.594Z,1236.00
2019-05-01T14:51:11.588Z,1236.00
2019-05-01T14:52:11.549Z,1232.00
2019-05-01T14:53:11.551Z,1228.00
2019-05-01T14:54:11.525Z,1220.00
2019-05-01T14:55:11.514Z,1216.00
2019-05-01T14:56:11.536Z,1212.00
2019-05-01T14:57:11.497Z,1208.00
2019-05-01T14:58:11.482Z,1204.00
2019-05-01T14:59:11.488Z,1212.00
2019-05-01T15:14:57.382Z,1184.00
2019-05-01T15:15:57.373Z,1188.00
2019-05-01T15:16:57.343Z,1184.00
2019-05-01T15:17:57.376Z,1192.00
2019-05-01T15:18:57.324Z,1192.00
2019-05-01T15:19:57.315Z,1188.00
2019-05-01T15:20:58.318Z,1188.00
2019-05-01T15:21:57.292Z,1184.00
2019-05-01T15:22:57.322Z,1184.00
2019-05-01T15:23:57.271Z,1176.00
2019-05-01T15:24:57.277Z,1180.00
2019-05-01T15:25:57.241Z,1172.00
2019-05-01T15:26:57.295Z,1172.00
2019-05-01T15:27:57.218Z,1168.00
2019-05-01T15:28:57.214Z,1164.00
2019-05-01T15:29:57.194Z,1164.00
2019-05-01T15:30:57.182Z,1164.00
2019-05-01T15:31:57.186Z,1160.00
2019-05-01T15:32:57.183Z,1160.00
2019-05-01T15:33:57.163Z,1160.00
2019-05-01T15:34:57.145Z,1164.00
2019-05-01T15:35:57.127Z,1160.00
2019-05-01T15:36:57.130Z,1156.00
2019-05-01T15:37:57.338Z,1152.00
2019-05-01T15:38:57.087Z,1156.00
2019-05-01T15:39:57.121Z,1152.00
2019-05-01T15:40:57.065Z,1152.00
2019-05-01T15:41:57.064Z,1152.00
2019-05-01T15:42:57.064Z,1152.00
2019-05-01T15:43:57.057Z,1148.00
2019-05-01T15:44:57.065Z,1152.00
2019-05-01T15:45:57.025Z,1140.00
2019-05-01T15:46:57.000Z,1136.00
2019-05-01T15:47:57.004Z,1136.00
2019-05-01T15:48:56.982Z,1132.00
2019-05-01T15:49:56.973Z,1116.00
2019-05-01T15:50:56.955Z,1112.00
2019-05-01T15:51:56.947Z,1120.00
2019-05-01T15:52:56.946Z,1120.00
2019-05-01T15:53:56.930Z,1120.00
2019-05-01T15:54:56.917Z,1124.00
2019-05-01T15:55:56.923Z,1124.00
2019-05-01T15:56:56.892Z,1124.00
2019-05-01T15:57:56.884Z,1124.00
2019-05-01T15:58:56.867Z,1124.00
2019-05-01T15:59:56.863Z,1124.00
2019-05-01T16:00:56.848Z,1116.00
2019-05-01T16:01:56.834Z,1116.00
2019-05-01T16:02:56.819Z,1116.00
2019-05-01T16:03:56.808Z,1108.00
2019-05-01T16:04:56.804Z,1108.00
2019-05-01T16:05:56.798Z,1108.00
2019-05-01T16:06:56.786Z,1108.00
2019-05-01T16:08:08.963Z,1104.00
2019-05-01T16:09:18.383Z,1100.00
2019-05-01T16:10:18.364Z,1104.00
2019-05-01T16:11:18.369Z,1104.00
2019-05-01T16:12:18.348Z,1100.00
2019-05-01T16:13:18.337Z,1096.00
2019-05-01T16:14:18.341Z,1096.00
2019-05-01T16:15:18.318Z,1092.00
2019-05-01T16:16:18.334Z,1092.00
2019-05-01T16:17:18.311Z,1092.00
2019-05-01T16:18:18.284Z,1088.00
2019-05-01T16:19:18.284Z,1080.00
2019-05-01T16:20:18.256Z,1076.00
2019-05-01T16:21:18.339Z,1076.00
2019-05-01T16:22:18.241Z,1076.00
2019-05-01T16:23:18.221Z,1068.00
2019-05-01T16:24:18.218Z,1068.00
2019-05-01T16:25:19.415Z,1064.00
2019-05-01T16:26:18.196Z,1056.00
2019-05-01T16:27:18.210Z,1052.00
2019-05-01T16:28:18.175Z,1044.00
2019-05-01T16:29:18.172Z,1036.00
2019-05-01T16:30:18.147Z,1032.00
2019-05-01T16:31:18.134Z,1032.00
2019-05-01T16:32:18.119Z,1028.00
2019-05-01T16:33:18.791Z,1024.00
2019-05-01T16:34:18.097Z,1020.00
2019-05-01T16:35:18.100Z,1012.00
2019-05-01T16:36:20.385Z,1004.00
2019-05-01T16:37:18.082Z,1000.00
2019-05-01T16:38:23.002Z,996.00
2019-05-01T16:39:18.042Z,992.00
2019-05-01T16:40:18.037Z,988.00
2019-05-01T16:41:18.045Z,984.00
2019-05-01T16:42:18.010Z,984.00
2019-05-01T16:43:18.005Z,980.00
2019-05-01T16:44:18.002Z,972.00
2019-05-01T16:45:17.991Z,964.00
2019-05-01T16:46:17.968Z,956.00
2019-05-01T16:47:17.959Z,948.00
2019-05-01T16:48:17.970Z,944.00
2019-05-01T16:49:17.976Z,932.00
2019-05-01T16:50:17.924Z,924.00
2019-05-01T16:51:17.912Z,920.00
2019-05-01T16:52:17.900Z,916.00
2019-05-01T16:53:17.883Z,912.00
2019-05-01T16:54:17.879Z,916.00
2019-05-01T16:55:17.874Z,908.00
2019-05-01T16:56:17.860Z,900.00
2019-05-01T16:57:17.842Z,896.00
2019-05-01T16:58:17.850Z,888.00
2019-05-01T16:59:17.822Z,880.00
2019-05-01T17:00:17.825Z,872.00
2019-05-01T17:01:17.800Z,864.00
2019-05-01T17:02:17.784Z,860.00
2019-05-01T17:03:17.781Z,852.00
2019-05-01T17:04:17.766Z,848.00
2019-05-01T17:05:17.762Z,840.00
2019-05-01T17:06:17.734Z,832.00
2019-05-01T17:07:17.734Z,824.00
2019-05-01T17:08:17.726Z,812.00
2019-05-01T17:09:17.704Z,808.00
2019-05-01T17:10:17.693Z,804.00
2019-05-01T17:11:17.684Z,800.00
2019-05-01T17:12:17.683Z,792.00
2019-05-01T17:13:17.665Z,784.00
2019-05-01T17:14:17.659Z,780.00
2019-05-01T17:15:17.641Z,768.00
2019-05-01T17:16:17.627Z,768.00
2019-05-01T17:17:17.641Z,756.00
2019-05-01T17:18:17.614Z,756.00
2019-05-01T17:19:17.603Z,748.00
2019-05-01T17:20:17.598Z,744.00
2019-05-01T17:21:17.583Z,732.00
2019-05-01T17:22:17.594Z,728.00
2019-05-01T17:23:17.562Z,720.00
2019-05-01T17:24:17.553Z,712.00
2019-05-01T17:25:17.527Z,708.00
2019-05-01T17:26:17.535Z,696.00
2019-05-01T17:27:17.511Z,692.00
2019-05-01T17:28:17.494Z,680.00
2019-05-01T17:29:17.489Z,676.00
2019-05-01T17:30:17.476Z,668.00
2019-05-01T17:31:17.457Z,660.00
2019-05-01T17:32:17.465Z,652.00
2019-05-01T17:33:20.668Z,644.00
2019-05-01T17:34:17.444Z,636.00
2019-05-01T17:35:17.421Z,632.00
2019-05-01T17:36:17.413Z,620.00
2019-05-01T17:37:17.392Z,616.00
2019-05-01T17:38:17.398Z,612.00
2019-05-01T17:39:17.372Z,608.00
2019-05-01T17:40:17.359Z,596.00
2019-05-01T17:41:17.347Z,588.00
2019-05-01T17:42:17.337Z,580.00
2019-05-01T17:43:17.326Z,572.00
2019-05-01T17:44:20.118Z,564.00